This is the latest recevied weather packets stored in our database for station/object CA3DJL-10. If no packets are shown the sender has not sent any weather packets the latest 10 day(s).
| Time | Temp. | Humidity | Pressure | Rain* | Wind** | Luminosity | Snow |
|---|---|---|---|---|---|---|---|
| 1777451508 | 17.22° C | 36% | 986 hPa | - | - | - | - |
| 1777450607 | 17.22° C | 38% | 986 hPa | - | - | - | - |
| 1777449706 | 17.22° C | 41% | 986 hPa | - | - | - | - |
| 1777448805 | 17.22° C | 37% | 985 hPa | - | - | - | - |
| 1777447904 | 17.78° C | 32% | 985 hPa | - | - | - | - |
| 1777447002 | 17.78° C | 32% | 985 hPa | - | - | - | - |
| 1777446101 | 18.33° C | 33% | 986 hPa | - | - | - | - |
| 1777445200 | 18.33° C | 33% | 986 hPa | - | - | - | - |
| 1777444299 | 18.33° C | 33% | 986 hPa | - | - | - | - |
| 1777443398 | 18.89° C | 32% | 986 hPa | - | - | - | - |
| 1777442497 | 18.89° C | 32% | 986 hPa | - | - | - | - |
| 1777441595 | 18.89° C | 31% | 987 hPa | - | - | - | - |
| 1777440694 | 18.89° C | 32% | 987 hPa | - | - | - | - |
| 1777439793 | 19.44° C | 32% | 987 hPa | - | - | - | - |
| 1777438892 | 19.44° C | 32% | 987 hPa | - | - | - | - |
| 1777437991 | 19.44° C | 36% | 987 hPa | - | - | - | - |
| 1777437090 | 20° C | 30% | 987 hPa | - | - | - | - |
| 1777434387 | 21.11° C | 30% | 987 hPa | - | - | - | - |
| 1777433486 | 21.11° C | 31% | 987 hPa | - | - | - | - |
| 1777432585 | 21.11° C | 31% | 987 hPa | - | - | - | - |
| 1777423574 | 26.11° C | 26% | 986 hPa | - | - | - | - |
| 1777412760 | 33.89° C | 21% | 986 hPa | - | - | - | - |
| 1777410958 | 35° C | 21% | 985 hPa | - | - | - | - |
| 1777410057 | 35° C | 21% | 985 hPa | - | - | - | - |
| 1777409156 | 35.56° C | 21% | 985 hPa | - | - | - | - |
* Rain since midnight (hover to see other rain measurements)
** Current wind speed in m/s (hover to see current wind gust speed)